Time;durP1;ratioP1;P1;durP2;ratioP2;P2;SDS_P1;SDS_P2;PMS_P1;PMS_P2;Temp;Humidity;BMP_temperature;BMP_pressure;BME280_temperature;BME280_humidity;BME280_pressure;Samples;Min_cycle;Max_cycle;Signal;HPM_P1;HPM_P2
2023/06/24 00:02:38;;;;;;;11.40;10.20;;;26.00;69.70;;;;;;222465;1264;23748;-47
2023/06/24 00:07:45;;;;;;;11.80;10.60;;;25.90;69.70;;;;;;223010;1258;24205;-48
2023/06/24 00:12:49;;;;;;;15.70;10.70;;;26.00;69.20;;;;;;222369;1257;22518;-47
2023/06/24 00:17:53;;;;;;;10.20;9.40;;;25.80;70.30;;;;;;222511;1267;24113;-48
2023/06/24 00:22:57;;;;;;;10.80;9.80;;;25.90;70.40;;;;;;222215;1260;24336;-52
2023/06/24 00:28:02;;;;;;;10.30;9.40;;;26.00;70.00;;;;;;230235;1261;22161;-52
2023/06/24 00:33:09;;;;;;;10.00;9.10;;;26.20;69.80;;;;;;230038;1260;22199;-52
2023/06/24 00:38:13;;;;;;;9.30;8.50;;;26.30;69.80;;;;;;230299;1262;22153;-49
2023/06/24 00:43:19;;;;;;;8.90;8.20;;;26.40;69.40;;;;;;226129;1254;24239;-50
2023/06/24 00:48:24;;;;;;;9.50;8.70;;;26.40;69.50;;;;;;222746;1254;22620;-50
2023/06/24 00:53:29;;;;;;;8.40;7.70;;;26.20;69.90;;;;;;222734;1260;23270;-53
2023/06/24 00:58:36;;;;;;;8.60;7.80;;;26.10;71.10;;;;;;222340;1253;25597;-54
2023/06/24 01:03:40;;;;;;;8.20;7.50;;;26.10;70.90;;;;;;222376;1254;25331;-53
2023/06/24 01:08:50;;;;;;;8.90;8.10;;;26.10;70.50;;;;;;222403;1254;22576;-52
2023/06/24 01:13:55;;;;;;;8.30;7.70;;;26.10;71.10;;;;;;222393;1260;25811;-52
2023/06/24 01:19:17;;;;;;;8.40;7.70;;;26.10;71.50;;;;;;222645;1252;22520;-50
2023/06/24 01:24:50;;;;;;;8.00;7.20;;;26.10;71.70;;;;;;222339;1260;22529;-53
2023/06/24 01:30:04;;;;;;;8.10;7.60;;;26.10;71.70;;;;;;220914;1262;22837;-52
2023/06/24 01:35:20;;;;;;;8.00;7.40;;;26.10;71.40;;;;;;221074;1261;22533;-53
2023/06/24 01:40:57;;;;;;;8.10;7.50;;;26.10;71.70;;;;;;220830;1253;22520;-53
2023/06/24 01:46:05;;;;;;;7.80;7.10;;;26.10;72.10;;;;;;219993;1262;25403;-52
2023/06/24 01:51:17;;;;;;;7.10;6.50;;;26.10;71.40;;;;;;219761;1274;24197;-50
2023/06/24 01:56:25;;;;;;;7.50;6.90;;;26.10;71.10;;;;;;219834;1277;25353;-55
2023/06/24 02:01:32;;;;;;;7.10;6.50;;;26.10;71.20;;;;;;220038;1280;22539;-54
2023/06/24 02:06:37;;;;;;;6.20;5.70;;;26.10;71.30;;;;;;220567;1262;22529;-51
2023/06/24 02:11:43;;;;;;;7.30;6.60;;;26.10;71.80;;;;;;220822;1263;24543;-53
2023/06/24 02:16:49;;;;;;;7.60;7.00;;;26.10;71.40;;;;;;220610;1260;233282;-54
2023/06/24 02:21:56;;;;;;;6.60;6.10;;;26.10;71.40;;;;;;221977;1254;25479;-52
2023/06/24 02:27:00;;;;;;;6.50;6.00;;;26.10;71.10;;;;;;223540;1254;22529;-52
2023/06/24 02:32:06;;;;;;;6.90;6.20;;;26.10;71.30;;;;;;222735;1260;22553;-52
2023/06/24 02:37:10;;;;;;;6.70;6.20;;;26.10;70.90;;;;;;230177;1266;22196;-51
2023/06/24 02:42:14;;;;;;;6.10;5.70;;;26.20;70.60;;;;;;225114;1253;24183;-53
2023/06/24 02:47:19;;;;;;;5.60;5.20;;;26.30;70.10;;;;;;222028;1263;22603;-53
2023/06/24 02:52:28;;;;;;;6.20;5.30;;;26.20;70.10;;;;;;222134;1254;25421;-50
2023/06/24 02:57:36;;;;;;;5.90;5.50;;;26.10;71.00;;;;;;222505;1267;24508;-50
2023/06/24 03:03:12;;;;;;;6.00;5.50;;;26.00;70.10;;;;;;222434;1253;22519;-53
2023/06/24 03:08:29;;;;;;;4.90;4.50;;;26.10;70.30;;;;;;222607;1256;23869;-53
2023/06/24 03:13:33;;;;;;;5.30;5.00;;;26.00;69.90;;;;;;222308;1257;22578;-51
2023/06/24 03:18:50;;;;;;;5.60;5.20;;;26.00;70.20;;;;;;222413;1264;22655;-53
2023/06/24 03:23:56;;;;;;;5.60;5.20;;;26.00;70.00;;;;;;222388;1260;22707;-48
2023/06/24 03:29:02;;;;;;;5.40;5.00;;;26.00;70.00;;;;;;222372;1263;22634;-52
2023/06/24 03:34:07;;;;;;;5.60;5.20;;;26.00;69.50;;;;;;222527;1262;22514;-50
2023/06/24 03:39:11;;;;;;;5.70;5.20;;;26.00;69.60;;;;;;222842;1263;23139;-52
2023/06/24 03:44:16;;;;;;;4.60;4.20;;;26.00;69.50;;;;;;222251;1254;22504;-50
2023/06/24 03:49:21;;;;;;;5.60;5.10;;;26.00;69.90;;;;;;222390;1264;22525;-51
2023/06/24 03:54:26;;;;;;;4.90;4.60;;;26.00;70.00;;;;;;222493;1260;22507;-53
2023/06/24 03:59:30;;;;;;;5.30;4.90;;;26.00;69.50;;;;;;222502;1263;25386;-52
2023/06/24 04:04:35;;;;;;;5.10;4.70;;;26.00;69.80;;;;;;222950;1253;22526;-50
2023/06/24 04:09:39;;;;;;;4.80;4.50;;;26.00;69.50;;;;;;222300;1257;25357;-53
2023/06/24 04:14:43;;;;;;;4.50;4.20;;;26.00;70.10;;;;;;222209;1266;22530;-52
2023/06/24 04:19:48;;;;;;;4.70;4.40;;;26.00;69.70;;;;;;222663;1260;22740;-52
2023/06/24 04:24:52;;;;;;;4.70;4.40;;;26.00;69.70;;;;;;222812;1261;22523;-52
2023/06/24 04:29:57;;;;;;;4.80;4.50;;;26.00;70.10;;;;;;222487;1251;25352;-53
2023/06/24 04:35:01;;;;;;;4.70;4.30;;;26.00;69.60;;;;;;222420;1266;25548;-52
2023/06/24 04:40:06;;;;;;;5.20;4.80;;;26.00;69.70;;;;;;222340;1260;22504;-53
2023/06/24 04:45:10;;;;;;;4.60;4.30;;;26.00;69.70;;;;;;222206;1261;22495;-52
2023/06/24 04:50:14;;;;;;;4.20;3.80;;;26.00;69.50;;;;;;222468;1260;22630;-55
2023/06/24 04:55:19;;;;;;;4.90;4.50;;;26.00;69.40;;;;;;222163;1260;23886;-54
2023/06/24 05:00:24;;;;;;;4.80;4.50;;;26.00;69.40;;;;;;222140;1260;24762;-54
2023/06/24 05:05:28;;;;;;;4.10;3.80;;;26.00;69.50;;;;;;222290;1260;25261;-52
2023/06/24 05:10:34;;;;;;;4.90;4.50;;;26.00;69.70;;;;;;222261;1266;23811;-53
2023/06/24 05:15:39;;;;;;;4.10;3.90;;;26.00;69.40;;;;;;222438;1260;22507;-54
2023/06/24 05:20:43;;;;;;;4.00;3.80;;;26.00;69.40;;;;;;222483;1267;25204;-56
2023/06/24 05:25:47;;;;;;;4.70;4.40;;;26.00;69.30;;;;;;222592;1254;22511;-54
2023/06/24 05:30:52;;;;;;;4.40;4.10;;;26.00;69.60;;;;;;222351;1260;25380;-52
2023/06/24 05:35:56;;;;;;;4.10;3.70;;;26.00;69.00;;;;;;222265;1259;22530;-50
2023/06/24 05:41:02;;;;;;;6.10;4.00;;;26.00;68.80;;;;;;222472;1266;22516;-53
2023/06/24 05:46:07;;;;;;;4.10;3.80;;;26.00;68.90;;;;;;222542;1254;23566;-50
2023/06/24 05:51:11;;;;;;;4.30;4.00;;;26.00;69.10;;;;;;222706;1260;26649;-53
2023/06/24 05:56:15;;;;;;;3.70;3.40;;;26.00;68.30;;;;;;222449;1253;25265;-41
2023/06/24 06:01:19;;;;;;;4.60;3.20;;;25.90;66.30;;;;;;221884;1260;24222;-41
2023/06/24 06:06:24;;;;;;;5.20;3.00;;;25.60;63.90;;;;;;222443;1254;22517;-39
2023/06/24 06:11:28;;;;;;;4.80;2.90;;;25.30;62.70;;;;;;222716;1261;24257;-41
2023/06/24 06:16:32;;;;;;;3.30;2.60;;;25.20;62.00;;;;;;222282;1256;22618;-42
2023/06/24 06:21:37;;;;;;;3.80;3.00;;;25.10;61.60;;;;;;222107;1264;22507;-41
2023/06/24 06:26:43;;;;;;;3.30;3.00;;;25.00;61.80;;;;;;222420;1263;22514;-42
2023/06/24 06:31:47;;;;;;;4.90;3.40;;;24.90;61.60;;;;;;222765;1263;22615;-46
2023/06/24 06:36:51;;;;;;;5.90;3.80;;;24.90;61.50;;;;;;222504;1259;24176;-46
2023/06/24 06:41:55;;;;;;;4.10;3.70;;;24.80;61.90;;;;;;222923;1261;25268;-45
2023/06/24 06:47:00;;;;;;;4.30;4.00;;;24.70;61.90;;;;;;222278;1263;22511;-48
2023/06/24 06:52:05;;;;;;;4.70;4.30;;;24.70;62.00;;;;;;221966;1260;24171;-48
2023/06/24 06:57:09;;;;;;;4.70;4.40;;;24.50;62.30;;;;;;222323;1264;24249;-50
2023/06/24 07:02:14;;;;;;;5.00;4.60;;;24.50;62.50;;;;;;222373;1261;24976;-52
2023/06/24 07:07:18;;;;;;;5.20;4.70;;;24.40;63.40;;;;;;222389;1265;22523;-47
2023/06/24 07:12:23;;;;;;;4.90;4.40;;;24.30;63.60;;;;;;222571;1245;24015;-49
2023/06/24 07:17:27;;;;;;;6.70;4.40;;;24.20;63.90;;;;;;222468;1260;25262;-46
2023/06/24 07:22:31;;;;;;;5.20;4.40;;;24.30;64.00;;;;;;222369;1257;23955;-50
2023/06/24 07:27:36;;;;;;;4.70;4.40;;;24.20;64.30;;;;;;222586;1268;24218;-47
2023/06/24 07:32:40;;;;;;;4.90;4.50;;;24.20;64.30;;;;;;222141;1260;22875;-51
2023/06/24 07:37:45;;;;;;;4.30;4.00;;;24.30;64.60;;;;;;222564;1260;25464;-48
2023/06/24 07:42:49;;;;;;;4.10;3.60;;;24.60;64.40;;;;;;222087;1266;22515;-48
2023/06/24 07:47:53;;;;;;;4.80;4.00;;;24.90;63.40;;;;;;222482;1258;22631;-48
2023/06/24 07:52:58;;;;;;;4.30;4.00;;;25.00;63.00;;;;;;222438;1261;22620;-49
2023/06/24 07:58:02;;;;;;;6.10;3.90;;;25.00;63.50;;;;;;222357;1262;24088;-48
2023/06/24 08:03:07;;;;;;;7.10;4.60;;;25.10;64.00;;;;;;222508;1263;24152;-47
2023/06/24 08:08:11;;;;;;;4.60;3.60;;;25.10;63.90;;;;;;222208;1252;24192;-51
2023/06/24 08:13:15;;;;;;;4.80;3.90;;;25.20;63.70;;;;;;222554;1260;23903;-49
2023/06/24 08:18:20;;;;;;;4.00;3.70;;;25.20;63.70;;;;;;222711;1254;25430;-47
2023/06/24 08:23:24;;;;;;;6.90;3.90;;;25.20;63.90;;;;;;222337;1266;22518;-48
2023/06/24 08:28:28;;;;;;;8.00;4.00;;;25.30;64.30;;;;;;222454;1264;22514;-47
2023/06/24 08:33:34;;;;;;;4.30;3.70;;;25.40;63.70;;;;;;222309;1261;25545;-48
2023/06/24 08:38:38;;;;;;;4.30;3.40;;;25.40;63.90;;;;;;222331;1259;22662;-53
2023/06/24 08:43:43;;;;;;;4.80;3.80;;;25.50;64.00;;;;;;223062;1263;22621;-48
2023/06/24 08:48:48;;;;;;;4.10;3.50;;;25.50;63.90;;;;;;222330;1260;22749;-51
2023/06/24 08:53:53;;;;;;;4.20;3.80;;;25.50;64.00;;;;;;223006;1260;22640;-47
2023/06/24 08:58:58;;;;;;;4.50;4.10;;;25.70;63.70;;;;;;222193;1260;25476;-50
2023/06/24 09:04:03;;;;;;;8.00;3.90;;;25.70;63.80;;;;;;224060;1254;25456;-47
2023/06/24 09:09:22;;;;;;;6.70;4.40;;;25.80;63.60;;;;;;222112;1259;24215;-45
2023/06/24 09:14:30;;;;;;;5.20;3.90;;;25.70;65.00;;;;;;222292;1267;26588;-49
2023/06/24 09:19:36;;;;;;;6.00;3.80;;;25.80;68.40;;;;;;222626;1254;22507;-48
2023/06/24 09:24:40;;;;;;;6.00;4.20;;;25.80;65.90;;;;;;222357;1254;25331;-47
2023/06/24 09:29:44;;;;;;;4.30;3.90;;;25.80;67.60;;;;;;230085;1253;22370;-49
2023/06/24 09:34:48;;;;;;;6.00;3.90;;;26.10;66.50;;;;;;225357;1260;24186;-47
2023/06/24 09:39:53;;;;;;;5.90;3.80;;;26.20;65.80;;;;;;222399;1260;22554;-49
2023/06/24 09:44:57;;;;;;;6.80;3.90;;;26.20;65.50;;;;;;220736;1272;25376;-47
2023/06/24 09:50:01;;;;;;;7.80;4.10;;;26.10;65.90;;;;;;220762;1272;22665;-50
2023/06/24 09:55:07;;;;;;;7.40;4.10;;;26.10;66.00;;;;;;221100;1269;25467;-52
2023/06/24 10:00:15;;;;;;;6.60;3.90;;;26.10;66.20;;;;;;221377;1268;24236;-48
2023/06/24 10:05:19;;;;;;;5.00;3.60;;;26.00;66.10;;;;;;222072;1264;22541;-50
2023/06/24 10:10:23;;;;;;;14.00;3.80;;;26.10;66.40;;;;;;222130;1260;22505;-49
2023/06/24 10:15:28;;;;;;;4.00;3.70;;;26.10;65.80;;;;;;222794;1254;22639;-51
2023/06/24 10:20:38;;;;;;;7.00;3.60;;;26.20;65.90;;;;;;222514;1265;24200;-52
2023/06/24 10:25:46;;;;;;;7.80;3.50;;;26.10;66.00;;;;;;222334;1255;22559;-50
2023/06/24 10:30:56;;;;;;;5.90;3.70;;;26.10;66.20;;;;;;222620;1263;25484;-47
2023/06/24 10:36:00;;;;;;;6.40;3.40;;;26.20;66.20;;;;;;222921;1264;22514;-46
2023/06/24 10:41:16;;;;;;;5.70;3.90;;;26.20;65.90;;;;;;221744;1261;24461;-48
2023/06/24 10:46:20;;;;;;;7.50;3.90;;;26.10;66.80;;;;;;222137;1254;24173;-47
2023/06/24 10:51:24;;;;;;;5.70;5.20;;;26.00;66.40;;;;;;222190;1264;22514;-47
2023/06/24 10:56:30;;;;;;;8.10;5.70;;;25.90;65.10;;;;;;222070;1261;25258;-47
2023/06/24 11:01:34;;;;;;;6.80;6.20;;;25.80;63.90;;;;;;222022;1262;22522;-49
2023/06/24 11:06:38;;;;;;;6.90;5.90;;;25.80;63.50;;;;;;222065;1266;22970;-48
2023/06/24 11:11:43;;;;;;;8.30;5.60;;;25.90;63.40;;;;;;222279;1263;22568;-45
2023/06/24 11:16:47;;;;;;;6.60;6.00;;;25.80;63.50;;;;;;221928;1263;22623;-48
2023/06/24 11:21:51;;;;;;;7.30;6.20;;;25.80;63.50;;;;;;222074;1265;22619;-51
2023/06/24 11:26:56;;;;;;;8.90;6.30;;;25.80;64.00;;;;;;222221;1260;23922;-48
2023/06/24 11:32:02;;;;;;;7.90;5.50;;;25.70;63.80;;;;;;222269;1257;22513;-45
2023/06/24 11:37:12;;;;;;;6.90;6.00;;;25.70;64.20;;;;;;221969;1261;24384;-49
2023/06/24 11:42:16;;;;;;;7.10;6.40;;;25.80;63.40;;;;;;222051;1264;22585;-48
2023/06/24 11:47:23;;;;;;;8.20;6.10;;;25.90;63.30;;;;;;222730;1264;24311;-46
2023/06/24 11:52:52;;;;;;;20.60;6.80;;;26.00;62.40;;;;;;221891;1264;25430;-47
2023/06/24 11:58:04;;;;;;;8.60;5.60;;;26.20;62.50;;;;;;222413;1263;24199;-49
2023/06/24 12:03:10;;;;;;;8.30;6.80;;;26.00;63.00;;;;;;222596;1262;24470;-50
2023/06/24 12:08:16;;;;;;;10.50;6.80;;;26.00;63.90;;;;;;222520;1261;25274;-54
2023/06/24 12:13:20;;;;;;;9.00;7.00;;;26.10;64.10;;;;;;222043;1264;23913;-56
2023/06/24 12:18:24;;;;;;;9.00;7.30;;;26.10;65.20;;;;;;221977;1259;22589;-56
2023/06/24 12:23:28;;;;;;;10.80;7.70;;;26.20;66.00;;;;;;221950;1253;22527;-53
2023/06/24 12:28:33;;;;;;;10.00;7.00;;;26.20;67.50;;;;;;222089;1266;24186;-53
2023/06/24 12:33:37;;;;;;;11.50;8.10;;;26.30;66.60;;;;;;222196;1259;24358;-52
2023/06/24 12:38:41;;;;;;;9.80;7.70;;;26.40;66.60;;;;;;222227;1266;23867;-52
2023/06/24 12:43:45;;;;;;;7.60;6.90;;;26.20;66.00;;;;;;225377;1260;22623;-53
2023/06/24 12:48:49;;;;;;;7.40;6.40;;;26.50;64.50;;;;;;222088;1261;23900;-52
2023/06/24 12:53:54;;;;;;;8.70;6.70;;;26.50;62.60;;;;;;222203;1259;25594;-57
2023/06/24 12:58:57;;;;;;;7.40;6.70;;;26.30;62.60;;;;;;220809;1268;24205;-53
2023/06/24 13:04:02;;;;;;;7.20;6.50;;;26.30;62.60;;;;;;220843;1274;24194;-51
2023/06/24 13:09:06;;;;;;;10.00;6.40;;;26.50;62.20;;;;;;223951;1268;24395;-52
2023/06/24 13:14:10;;;;;;;7.60;6.10;;;26.50;62.60;;;;;;220615;1259;26480;-52
2023/06/24 13:19:14;;;;;;;12.70;6.80;;;26.50;61.80;;;;;;222085;1260;25258;-52
2023/06/24 13:24:19;;;;;;;33.70;30.20;;;26.40;61.40;;;;;;222959;1267;23914;-54
2023/06/24 13:29:23;;;;;;;9.20;7.30;;;26.60;62.80;;;;;;222296;1264;22517;-55
2023/06/24 13:34:27;;;;;;;13.60;6.60;;;26.80;61.60;;;;;;222283;1267;23190;-56
2023/06/24 13:39:32;;;;;;;13.30;7.10;;;26.70;61.10;;;;;;222543;1260;22511;-55
2023/06/24 13:44:37;;;;;;;8.60;6.80;;;26.60;60.90;;;;;;222041;1263;25481;-59
2023/06/24 13:49:41;;;;;;;8.00;6.30;;;26.60;60.10;;;;;;222686;1267;22510;-53
2023/06/24 13:54:46;;;;;;;7.20;6.20;;;26.70;58.80;;;;;;222438;1260;22653;-54
2023/06/24 13:59:51;;;;;;;8.60;5.60;;;26.30;59.10;;;;;;222253;1266;22525;-55
2023/06/24 14:04:55;;;;;;;8.40;5.20;;;26.30;57.90;;;;;;222158;1263;25299;-54
2023/06/24 14:10:00;;;;;;;6.60;5.60;;;26.40;57.10;;;;;;222297;1263;22683;-52
2023/06/24 14:15:05;;;;;;;6.10;5.40;;;26.20;55.90;;;;;;222180;1261;216981;-56
2023/06/24 14:20:10;;;;;;;11.50;8.90;;;26.10;56.90;;;;;;222673;1267;25441;-54
2023/06/24 14:25:15;;;;;;;7.70;5.70;;;26.10;56.90;;;;;;222097;1261;25059;-53
2023/06/24 14:30:22;;;;;;;5.50;5.00;;;26.10;55.60;;;;;;222302;1244;22529;-52
2023/06/24 14:35:26;;;;;;;6.30;5.70;;;25.90;55.90;;;;;;222184;1260;23376;-51
2023/06/24 14:40:32;;;;;;;7.40;5.30;;;25.80;56.00;;;;;;222107;1260;22651;-54
2023/06/24 14:45:37;;;;;;;12.20;6.40;;;25.70;55.60;;;;;;222661;1261;23869;-54
2023/06/24 14:50:41;;;;;;;9.90;6.00;;;25.90;55.70;;;;;;222210;1260;25316;-53
2023/06/24 14:55:46;;;;;;;9.50;5.40;;;25.80;55.80;;;;;;222237;1264;24287;-52
2023/06/24 15:00:50;;;;;;;6.50;5.50;;;26.00;55.50;;;;;;222376;1254;23872;-52
2023/06/24 15:05:54;;;;;;;5.90;5.40;;;26.00;56.00;;;;;;222512;1263;25252;-53
2023/06/24 15:10:58;;;;;;;9.10;5.80;;;25.90;56.20;;;;;;222760;1261;25371;-55
2023/06/24 15:16:03;;;;;;;16.90;5.70;;;25.70;57.30;;;;;;222219;1264;22701;-54
2023/06/24 15:21:07;;;;;;;8.30;5.60;;;25.80;57.10;;;;;;222407;1263;22699;-50
2023/06/24 15:26:11;;;;;;;5.90;5.40;;;25.90;56.60;;;;;;225632;1264;22633;-52
2023/06/24 15:31:15;;;;;;;9.90;5.30;;;25.90;56.40;;;;;;222519;1254;22521;-53
2023/06/24 15:36:22;;;;;;;6.00;5.10;;;26.10;56.00;;;;;;222646;1254;23016;-54
2023/06/24 15:41:26;;;;;;;5.70;5.30;;;26.00;55.00;;;;;;222685;1261;22525;-49
2023/06/24 15:46:30;;;;;;;6.80;5.10;;;25.80;55.70;;;;;;222133;1260;26702;-55
2023/06/24 15:51:34;;;;;;;8.80;5.30;;;25.80;56.40;;;;;;222066;1267;22607;-53
2023/06/24 15:56:38;;;;;;;6.80;6.00;;;25.80;56.80;;;;;;222567;1260;22514;-56
2023/06/24 16:01:43;;;;;;;8.10;5.40;;;25.90;56.90;;;;;;222645;1254;22522;-54
2023/06/24 16:06:47;;;;;;;8.80;6.30;;;25.90;56.20;;;;;;222401;1260;24286;-50
2023/06/24 16:11:52;;;;;;;6.10;5.60;;;26.10;56.00;;;;;;222173;1253;23732;-54
2023/06/24 16:16:56;;;;;;;9.50;5.50;;;26.10;56.40;;;;;;222088;1254;22503;-52
2023/06/24 16:22:00;;;;;;;9.40;5.60;;;26.20;55.90;;;;;;222208;1264;22627;-49
2023/06/24 16:27:05;;;;;;;5.40;5.00;;;26.00;53.70;;;;;;222133;1264;25383;-49
2023/06/24 16:32:09;;;;;;;5.90;5.30;;;26.10;53.80;;;;;;227220;1245;22519;-50
2023/06/24 16:37:13;;;;;;;6.50;5.90;;;26.10;53.70;;;;;;222950;1254;23267;-52
2023/06/24 16:42:17;;;;;;;6.30;5.60;;;26.10;53.00;;;;;;222396;1260;22517;-50
2023/06/24 16:47:22;;;;;;;5.40;5.00;;;26.10;53.20;;;;;;222431;1260;23908;-51
2023/06/24 16:52:26;;;;;;;6.10;5.50;;;26.10;53.80;;;;;;222009;1254;22617;-54
2023/06/24 16:57:30;;;;;;;8.80;5.50;;;26.10;54.10;;;;;;222760;1263;22578;-48
2023/06/24 17:02:34;;;;;;;6.40;5.70;;;26.10;54.60;;;;;;222318;1264;23893;-51
2023/06/24 17:07:39;;;;;;;5.70;5.20;;;26.10;54.40;;;;;;222394;1264;22531;-50
2023/06/24 17:12:43;;;;;;;6.10;5.60;;;26.00;54.60;;;;;;222030;1260;22545;-51
2023/06/24 17:17:47;;;;;;;6.00;5.60;;;26.00;55.00;;;;;;222473;1254;24399;-50
2023/06/24 17:22:51;;;;;;;6.30;5.60;;;26.00;55.00;;;;;;222228;1268;22522;-51
2023/06/24 17:27:56;;;;;;;7.50;5.80;;;26.00;54.30;;;;;;222310;1263;22720;-48
2023/06/24 17:33:00;;;;;;;9.60;6.00;;;26.00;54.90;;;;;;222176;1254;25210;-51
2023/06/24 17:38:04;;;;;;;6.40;5.80;;;26.00;55.10;;;;;;222390;1268;23001;-51
2023/06/24 17:43:08;;;;;;;6.20;5.80;;;26.00;54.90;;;;;;222521;1264;22591;-49
2023/06/24 17:48:13;;;;;;;7.70;6.30;;;26.00;55.30;;;;;;222409;1263;25272;-51
2023/06/24 17:53:17;;;;;;;7.80;5.90;;;26.00;55.80;;;;;;222661;1267;22518;-48
2023/06/24 17:58:21;;;;;;;6.80;6.30;;;26.00;55.70;;;;;;222311;1260;22514;-50
2023/06/24 18:03:25;;;;;;;7.00;6.40;;;26.00;56.00;;;;;;222373;1256;22505;-49
2023/06/24 18:08:30;;;;;;;6.70;6.10;;;26.00;56.30;;;;;;222405;1264;26475;-50
2023/06/24 18:13:34;;;;;;;6.70;6.10;;;26.00;56.50;;;;;;222510;1267;22515;-48
2023/06/24 18:18:38;;;;;;;7.40;6.20;;;26.00;56.50;;;;;;222128;1260;24403;-52
2023/06/24 18:23:44;;;;;;;9.80;7.00;;;26.00;56.50;;;;;;222079;1264;22521;-50
2023/06/24 18:28:48;;;;;;;7.20;6.60;;;26.00;56.60;;;;;;222571;1252;24461;-48
2023/06/24 18:33:53;;;;;;;6.40;5.90;;;26.00;56.70;;;;;;222412;1261;23918;-50
2023/06/24 18:39:01;;;;;;;6.90;5.80;;;26.00;56.80;;;;;;221238;1266;22547;-53
2023/06/24 18:44:07;;;;;;;7.70;6.70;;;26.00;57.50;;;;;;221386;1259;22759;-51
2023/06/24 18:49:11;;;;;;;7.90;6.30;;;26.00;57.50;;;;;;221212;1259;22554;-51
2023/06/24 18:54:16;;;;;;;7.50;6.80;;;26.00;58.10;;;;;;221380;1266;22772;-49
2023/06/24 18:59:20;;;;;;;7.20;6.60;;;26.00;58.20;;;;;;222655;1260;25396;-49
2023/06/24 19:04:24;;;;;;;6.80;6.20;;;26.00;58.00;;;;;;222623;1252;23885;-50
2023/06/24 19:09:29;;;;;;;9.80;7.00;;;26.00;58.40;;;;;;222388;1267;22771;-52
2023/06/24 19:14:33;;;;;;;11.60;6.80;;;26.10;59.50;;;;;;222642;1254;22517;-54
2023/06/24 19:19:39;;;;;;;10.20;6.50;;;26.00;60.60;;;;;;222207;1261;22586;-54
2023/06/24 19:24:45;;;;;;;10.50;7.10;;;26.10;61.20;;;;;;222758;1247;24180;-54
2023/06/24 19:29:51;;;;;;;9.70;8.00;;;26.00;61.60;;;;;;222582;1263;23129;-51
2023/06/24 19:35:08;;;;;;;8.50;7.60;;;25.70;63.10;;;;;;222570;1250;24180;-51
2023/06/24 19:40:12;;;;;;;9.40;8.50;;;25.50;64.30;;;;;;222354;1253;22623;-51
2023/06/24 19:45:17;;;;;;;14.30;8.70;;;25.60;65.20;;;;;;222391;1265;22521;-51
2023/06/24 19:50:21;;;;;;;12.20;8.80;;;25.70;64.60;;;;;;222380;1254;22541;-48
2023/06/24 19:55:26;;;;;;;9.70;8.20;;;26.00;65.50;;;;;;222229;1266;27783;-54
2023/06/24 20:00:30;;;;;;;8.60;7.30;;;26.30;65.50;;;;;;222288;1253;22535;-52
2023/06/24 20:05:34;;;;;;;9.80;7.70;;;26.20;64.80;;;;;;222327;1260;25472;-52
2023/06/24 20:10:38;;;;;;;9.00;7.90;;;26.30;64.90;;;;;;222495;1251;24180;-51
2023/06/24 20:15:42;;;;;;;8.00;7.20;;;26.30;64.90;;;;;;222315;1260;22622;-51
2023/06/24 20:20:47;;;;;;;10.00;7.60;;;26.40;65.10;;;;;;222365;1260;23911;-50
2023/06/24 20:25:51;;;;;;;9.00;7.80;;;26.40;65.20;;;;;;222813;1247;22529;-49
2023/06/24 20:31:02;;;;;;;9.50;7.50;;;26.30;65.50;;;;;;222682;1260;23906;-50
2023/06/24 20:36:07;;;;;;;18.40;8.20;;;26.30;66.20;;;;;;222667;1260;24183;-52
2023/06/24 20:41:27;;;;;;;12.60;7.20;;;26.40;67.30;;;;;;222540;1260;24104;-54
2023/06/24 20:46:32;;;;;;;9.50;7.60;;;26.30;67.10;;;;;;222864;1266;24179;-51
2023/06/24 20:51:36;;;;;;;8.30;7.60;;;26.30;66.20;;;;;;222739;1261;25318;-51
2023/06/24 20:56:40;;;;;;;8.50;7.70;;;26.30;66.20;;;;;;222584;1254;22816;-49
2023/06/24 21:01:44;;;;;;;9.40;7.90;;;26.30;66.20;;;;;;222467;1245;22500;-52
2023/06/24 21:06:49;;;;;;;8.10;7.20;;;26.40;66.10;;;;;;222463;1253;22531;-46
2023/06/24 21:11:53;;;;;;;8.20;7.40;;;26.50;66.20;;;;;;222517;1258;25367;-44
2023/06/24 21:16:57;;;;;;;8.70;7.70;;;26.30;66.20;;;;;;222715;1253;26595;-44
2023/06/24 21:22:01;;;;;;;7.20;6.70;;;26.30;66.10;;;;;;222267;1260;24340;-45
2023/06/24 21:27:05;;;;;;;8.00;7.30;;;26.20;66.30;;;;;;222206;1260;22513;-58
2023/06/24 21:32:10;;;;;;;9.30;8.40;;;26.20;67.10;;;;;;222294;1259;22540;-50
2023/06/24 21:37:14;;;;;;;25.00;9.80;;;26.20;67.60;;;;;;222397;1256;24363;-52
2023/06/24 21:42:19;;;;;;;8.80;7.90;;;26.00;68.00;;;;;;222264;1247;24212;-56
2023/06/24 21:47:25;;;;;;;15.60;10.10;;;26.10;67.30;;;;;;222346;1260;25263;-51
2023/06/24 21:52:29;;;;;;;9.90;8.90;;;26.30;66.90;;;;;;222668;1253;24190;-51
2023/06/24 21:57:34;;;;;;;12.80;8.80;;;26.20;67.00;;;;;;222118;1253;25255;-50
2023/06/24 22:02:39;;;;;;;10.90;9.20;;;26.10;66.80;;;;;;222374;1260;25274;-51
2023/06/24 22:07:46;;;;;;;10.10;9.10;;;26.20;66.40;;;;;;222712;1260;22636;-51
2023/06/24 22:12:51;;;;;;;9.70;8.60;;;26.20;66.10;;;;;;222358;1253;22521;-50
2023/06/24 22:17:57;;;;;;;13.00;8.80;;;26.20;65.50;;;;;;222334;1246;22568;-50
2023/06/24 22:23:01;;;;;;;9.90;8.90;;;26.20;65.20;;;;;;222478;1254;22630;-50
2023/06/24 22:28:05;;;;;;;9.80;8.70;;;26.10;65.20;;;;;;222342;1260;23715;-52
2023/06/24 22:33:09;;;;;;;9.70;8.70;;;26.10;65.20;;;;;;222532;1256;23874;-49
2023/06/24 22:38:13;;;;;;;9.10;8.30;;;26.10;65.10;;;;;;222260;1253;22838;-51
2023/06/24 22:43:17;;;;;;;9.00;8.30;;;26.10;64.70;;;;;;222567;1260;25372;-46
2023/06/24 22:48:21;;;;;;;9.40;8.30;;;26.10;64.40;;;;;;222743;1263;22536;-48
2023/06/24 22:53:26;;;;;;;10.00;8.50;;;26.20;64.00;;;;;;222228;1254;22520;-49
2023/06/24 22:58:30;;;;;;;9.60;8.60;;;26.20;64.10;;;;;;223105;1261;22660;-48
2023/06/24 23:03:35;;;;;;;9.10;8.30;;;26.20;63.50;;;;;;222522;1250;24095;-49
2023/06/24 23:08:39;;;;;;;8.60;7.90;;;26.30;63.40;;;;;;222322;1247;22633;-47
2023/06/24 23:13:43;;;;;;;8.70;8.00;;;26.10;64.20;;;;;;222397;1248;22511;-54
2023/06/24 23:18:48;;;;;;;10.30;8.20;;;26.10;63.90;;;;;;222202;1254;25207;-54
2023/06/24 23:23:53;;;;;;;8.70;7.90;;;26.00;63.80;;;;;;222381;1251;26482;-56
2023/06/24 23:29:06;;;;;;;10.80;7.90;;;26.00;63.70;;;;;;222047;1247;24212;-55
2023/06/24 23:34:10;;;;;;;8.80;7.90;;;26.00;64.00;;;;;;222237;1257;22636;-51
2023/06/24 23:39:15;;;;;;;8.40;7.60;;;26.00;64.30;;;;;;221872;1261;24376;-57
2023/06/24 23:44:19;;;;;;;8.40;7.70;;;26.00;64.40;;;;;;222417;1247;22592;-56
2023/06/24 23:49:23;;;;;;;8.40;7.70;;;25.90;65.00;;;;;;222232;1247;26056;-57
2023/06/24 23:54:28;;;;;;;8.50;7.70;;;25.90;64.80;;;;;;222133;1250;22511;-56
2023/06/24 23:59:32;;;;;;;9.00;8.30;;;25.90;65.00;;;;;;230182;1260;22668;-55
